Date,TemperatureHighF,TemperatureAvgF,TemperatureLowF,DewpointHighF,DewpointAvgF,DewpointLowF,HumidityHigh,HumidityAvg,HumidityLow,PressureMaxIn,PressureMinIn,WindSpeedMaxMPH,WindSpeedAvgMPH,GustSpeedMaxMPH,PrecipitationSumIn
2013-1-1,39,35,25,31,26,15,78,70,61,29.99,29.80,12,1,12,0.02
2013-1-2,33,26,21,18,16,12,70,63,51,30.15,29.96,11,1,0,0.00
2013-1-3,33,27,21,22,18,16,84,68,53,30.16,30.03,13,1,13,0.00
2013-1-4,37,34,30,25,23,21,74,66,58,30.05,29.92,17,3,17,0.00
2013-1-5,44,34,28,27,23,20,82,64,49,30.25,29.98,11,1,0,0.00
2013-1-6,46,38,31,33,29,25,93,72,52,30.18,29.93,11,1,0,0.00
2013-1-7,46,37,26,32,27,22,87,69,44,30.35,30.01,9,1,0,0.00
2013-1-8,48,35,24,35,29,22,94,79,56,30.38,30.30,10,1,0,0.00
2013-1-9,46,36,25,39,32,24,97,85,71,30.35,30.09,12,1,12,0.00
2013-1-10,49,41,34,34,29,26,78,63,44,30.50,30.20,12,1,12,0.00
2013-1-11,43,37,31,42,33,27,99,86,73,30.50,30.06,4,0,0,0.48
2013-1-12,49,44,39,47,44,39,100,98,92,30.12,30.03,3,0,0,0.01
2013-1-13,48,45,43,48,45,43,100,100,99,30.11,29.94,1,0,0,0.01
2013-1-14,56,48,39,55,44,31,100,87,57,30.26,29.86,6,0,5,0.05
2013-1-15,39,36,34,36,31,28,96,82,70,30.31,30.17,6,0,1,0.10
2013-1-16,33,32,31,31,31,30,97,95,90,30.18,30.05,4,0,0,0.27
2013-1-18,32,32,32,25,25,25,74,74,74,30.04,30.04,3,0,0,0.00
2013-1-19,50,41,26,32,29,18,79,61,45,30.28,29.88,17,2,17,0.02
2013-1-20,53,42,25,34,26,10,87,57,27,30.03,29.65,23,3,23,0.00
2013-1-21,30,27,22,20,15,10,75,60,49,30.05,29.80,9,0,0,0.00
2013-1-22,25,18,12,12,3,-4,69,52,36,30.17,29.80,19,3,19,0.00
2013-1-23,19,13,8,5,0,-4,80,56,40,30.22,30.13,14,1,14,0.00
2013-1-24,25,15,7,6,3,0,90,61,34,30.39,30.09,17,1,17,0.00
2013-1-25,24,16,11,16,7,-1,93,67,46,30.39,30.03,7,0,0,0.00
2013-1-26,29,19,10,14,10,8,94,71,46,30.35,30.02,5,0,0,0.00
2013-1-27,36,24,12,16,12,9,86,63,38,30.50,30.35,8,0,0,0.00
2013-1-28,34,29,22,33,25,13,97,87,68,30.45,29.97,5,0,0,0.13
2013-1-29,53,42,34,46,40,33,99,93,74,30.12,29.97,5,0,0,0.09
2013-1-30,66,47,37,61,46,37,100,99,83,30.03,29.29,16,0,16,0.18
2013-1-31,61,44,28,60,32,12,100,66,40,29.75,28.99,30,6,30,0.80
2013-2-1,32,26,22,20,14,6,88,61,38,30.20,29.75,20,2,20,0.00
2013-2-2,28,22,16,20,12,8,92,67,46,30.26,30.01,15,1,15,0.00
2013-2-3,32,24,20,22,20,17,96,83,63,30.01,29.76,7,0,0,0.01
2013-2-4,30,25,21,21,13,11,86,61,46,29.94,29.78,16,2,16,0.00
2013-2-5,30,27,24,28,24,15,95,88,67,29.94,29.85,5,0,0,0.00
2013-2-6,40,31,24,28,23,12,98,74,50,30.32,29.88,15,1,15,0.06
2013-2-7,32,27,20,21,14,10,73,59,46,30.46,30.28,5,0,0,0.00
2013-2-8,33,31,28,32,29,21,98,91,71,30.28,29.62,11,1,0,0.00
2013-2-9,34,27,18,28,19,9,98,72,44,30.32,29.72,0,0,0,0.03
2013-2-10,39,25,11,23,14,8,88,67,36,30.44,30.28,2,0,0,0.01
2013-2-11,42,34,27,42,33,21,100,93,77,30.29,29.62,3,0,0,0.23
2013-2-12,45,40,33,40,29,25,100,65,52,29.94,29.69,15,3,15,0.04
2013-2-13,46,34,23,32,27,21,96,75,50,29.92,29.64,4,0,0,0.00
2013-2-14,46,37,30,34,30,26,99,78,48,29.95,29.67,9,0,0,0.09
2013-2-15,55,41,30,37,32,27,94,70,43,29.97,29.87,13,1,13,0.00
2013-2-16,40,34,29,34,27,15,97,76,56,29.94,29.71,10,0,0,0.05
2013-2-17,34,26,17,15,9,2,60,48,36,29.99,29.65,21,2,21,0.00
2013-2-18,36,25,15,15,9,3,64,51,34,30.22,29.98,13,2,13,0.00
2013-2-19,45,34,22,42,28,14,98,79,55,30.16,29.64,14,1,14,0.32
2013-2-20,36,28,24,26,16,12,67,59,50,29.95,29.69,16,2,16,0.00
2013-2-21,36,27,22,19,15,12,74,60,49,30.26,29.94,17,2,17,0.00
2013-2-22,38,30,20,31,23,15,88,76,59,30.37,30.22,5,0,0,0.00
2013-2-23,40,36,33,40,35,31,99,98,88,30.24,29.77,7,0,0,0.28
2013-2-24,48,38,31,40,32,23,100,82,61,29.94,29.72,13,1,13,0.00
2013-2-25,44,36,28,31,28,24,89,73,58,30.20,29.94,9,0,0,0.00
2013-2-26,44,36,27,35,31,25,96,82,65,30.25,29.82,12,1,12,0.13
2013-2-27,48,42,35,47,40,34,99,93,78,29.84,29.46,16,2,16,0.62
2013-2-28,48,42,36,39,35,30,96,77,58,29.59,29.50,10,1,0,0.00
2013-3-1,47,38,29,34,30,27,95,75,56,29.75,29.57,9,1,0,0.00
2013-3-2,40,34,30,30,26,23,86,71,59,29.75,29.67,8,1,0,0.00
2013-3-3,40,32,27,25,21,17,77,65,49,29.75,29.64,14,1,14,0.00
2013-3-4,43,33,26,25,21,17,75,62,46,29.89,29.74,15,1,15,0.00
2013-3-5,50,38,29,31,26,22,78,63,44,29.99,29.89,11,1,0,0.00
2013-3-6,43,39,36,36,32,28,86,76,67,29.93,29.80,24,3,24,0.00
2013-3-7,41,36,32,36,31,27,96,81,66,30.05,29.89,15,2,15,0.11
2013-3-8,41,34,30,37,32,29,97,91,75,30.17,29.97,12,0,12,0.32
2013-3-9,59,42,28,29,23,13,84,53,17,30.28,30.15,10,1,0,0.07
2013-3-10,51,38,27,38,32,22,93,78,57,30.35,30.25,6,0,0,0.00
2013-3-11,56,45,36,48,42,34,98,89,62,30.28,30.04,5,1,0,0.00
2013-3-12,58,51,42,57,50,38,99,95,81,30.04,29.62,13,1,13,0.99
2013-3-13,51,42,35,38,32,24,93,69,39,29.85,29.76,15,2,15,0.00
2013-3-14,43,34,29,27,16,9,69,48,28,29.93,29.81,18,2,18,0.00
2013-3-15,46,34,27,33,21,13,69,57,45,29.95,29.68,13,1,13,0.00
2013-3-16,41,34,30,32,28,22,94,78,56,29.88,29.74,5,0,0,0.04
2013-3-17,38,32,27,31,22,16,93,66,46,30.27,29.88,10,0,0,0.00
2013-3-18,36,29,24,32,21,12,97,72,54,30.37,29.97,9,0,0,0.00
2013-3-19,36,34,32,35,33,32,98,97,96,29.97,29.71,9,1,0,0.17
2013-3-25,38,36,35,36,34,34,96,92,86,29.57,29.43,6,0,0,0.12
2013-3-26,52,41,30,35,31,26,96,69,41,29.83,29.57,12,1,12,0.00
2013-3-27,56,42,33,33,29,24,80,61,33,29.95,29.82,13,1,13,0.00
2013-3-28,52,42,32,34,31,28,90,67,48,30.08,29.93,10,1,0,0.00
2013-3-29,56,44,33,33,30,28,84,62,37,30.11,30.02,10,1,0,0.00
2013-3-30,60,45,29,35,27,18,93,55,21,30.13,30.01,13,1,13,0.00
2013-3-31,57,44,30,44,34,22,98,70,42,30.08,29.64,7,1,0,0.17
2013-4-1,61,47,35,48,38,15,99,74,38,29.87,29.58,22,2,22,0.00
2013-4-2,44,37,30,21,16,12,55,42,29,30.05,29.87,19,2,19,0.00
2013-4-3,48,37,30,20,15,12,53,41,26,30.27,30.05,20,2,20,0.00
2013-4-4,55,41,27,27,22,16,69,47,32,30.35,30.03,11,1,0,0.00
2013-4-5,65,49,39,33,27,21,73,47,23,30.03,29.68,15,1,15,0.00
2013-4-6,54,42,32,29,19,10,70,41,19,30.26,29.96,11,1,0,0.00
2013-4-7,66,50,37,46,36,28,81,61,32,30.26,29.92,14,1,14,0.00
2013-4-8,77,60,44,49,45,40,94,62,28,30.03,29.92,10,1,0,0.00
2013-4-9,84,67,50,56,47,38,96,54,22,29.94,29.84,16,2,16,0.01
2013-4-10,79,64,54,59,52,42,98,68,44,29.90,29.75,5,1,0,0.61
2013-4-11,61,55,47,59,52,42,100,89,69,29.98,29.72,8,1,0,0.01
2013-4-12,47,42,41,42,41,40,100,95,79,29.97,29.67,11,1,0,0.71
2013-4-13,59,47,37,46,40,35,100,78,44,29.93,29.70,14,1,14,0.02
2013-4-14,60,51,41,41,35,30,89,57,36,30.17,29.92,13,1,13,0.00
2013-4-15,58,49,41,42,34,29,86,57,41,30.33,30.17,7,1,0,0.00
2013-4-16,70,57,45,58,50,42,92,79,59,30.32,30.06,10,1,0,0.00
2013-4-17,73,62,52,57,45,34,91,58,26,30.25,30.07,10,1,0,0.02
2013-4-18,57,51,44,52,46,41,98,83,60,30.29,30.05,7,1,0,0.01
2013-4-19,80,66,53,67,61,52,100,86,63,30.05,29.57,15,2,15,0.35
2013-4-20,59,52,44,56,37,26,95,60,34,30.26,29.64,19,3,19,0.20
2013-4-21,56,46,35,32,26,22,69,47,28,30.58,30.26,10,1,0,0.00
2013-4-22,54,45,34,38,34,30,91,67,44,30.62,30.44,9,1,0,0.00
2013-4-23,52,44,38,45,38,32,90,79,72,30.44,30.08,9,1,0,0.00
2013-4-24,74,55,35,56,47,34,99,76,50,30.08,29.75,12,1,0,0.00
2013-4-25,66,56,44,55,34,24,84,46,21,30.22,29.80,15,2,15,0.00
2013-4-26,67,54,39,40,33,24,85,49,22,30.36,30.22,10,1,0,0.00
2013-4-27,72,55,40,38,34,27,74,47,23,30.39,30.22,10,0,0,0.00
2013-4-28,73,57,40,47,39,33,87,54,32,30.27,30.13,8,1,0,0.00
2013-4-29,55,52,51,52,49,42,97,90,60,30.19,30.13,4,0,0,0.16
2013-4-30,68,56,44,51,42,28,98,66,26,30.29,30.16,8,0,0,0.01
2013-5-1,69,53,36,49,40,28,93,65,27,30.44,30.29,12,0,12,0.00
2013-5-2,76,58,39,50,45,38,99,67,33,30.43,30.27,7,0,0,0.00
2013-5-3,68,56,44,46,41,35,92,60,34,30.41,30.30,9,1,0,0.00
2013-5-4,72,54,39,50,44,38,99,73,37,30.33,30.19,10,0,0,0.00
2013-5-5,65,50,38,48,42,37,99,76,39,30.25,30.18,9,0,0,0.00
2013-5-6,71,54,40,57,49,39,97,82,57,30.23,30.11,7,0,0,0.00
2013-5-7,76,60,45,62,54,44,100,83,58,30.13,30.03,10,0,0,0.00
2013-5-8,66,60,52,64,59,52,100,97,92,30.05,29.92,11,0,0,1.75
2013-5-9,70,59,51,60,56,51,100,92,62,29.96,29.85,8,0,0,0.37
2013-5-10,80,66,52,63,58,52,100,79,43,29.96,29.84,9,0,0,0.00
2013-5-11,72,65,61,67,63,60,100,95,76,29.87,29.64,12,0,12,0.96
2013-5-12,67,60,49,61,44,29,100,61,30,29.90,29.62,19,2,19,0.00
2013-5-13,57,48,40,36,32,28,84,56,35,30.08,29.90,14,1,14,0.00
2013-5-14,63,49,35,36,30,-100,93,57,23,30.10,29.98,10,1,0,0.00
2013-5-15,75,60,43,60,49,33,83,70,56,30.03,29.63,11,0,0,0.00
2013-5-16,82,68,54,63,56,44,99,70,36,29.79,29.67,11,0,0,0.00
2013-5-17,75,63,52,48,44,40,77,51,30,30.16,29.79,10,1,0,0.00
2013-5-18,65,57,51,57,52,46,94,84,62,30.26,30.15,1,0,0,0.01
2013-5-19,58,56,55,57,56,54,100,98,93,30.26,30.13,4,0,0,0.47
2013-5-20,80,67,57,70,64,57,100,90,66,30.14,29.91,8,0,0,0.01
2013-5-21,88,74,62,75,69,62,100,85,60,29.93,29.79,10,1,0,0.00
2013-5-22,84,72,62,76,69,61,99,90,73,29.88,29.77,6,0,0,0.00
2013-5-23,79,71,67,75,69,67,100,95,77,29.84,29.69,13,0,13,2.25
2013-5-24,67,54,45,67,52,42,100,94,82,29.92,29.64,12,1,12,0.44
2013-5-25,57,50,44,47,43,39,95,78,58,29.98,29.87,19,2,19,0.07
2013-5-26,69,56,46,42,40,36,78,56,32,30.17,29.94,21,2,21,0.00
2013-5-27,75,60,41,48,42,35,91,57,30,30.21,30.08,10,1,0,0.00
2013-5-28,64,56,49,58,53,46,100,88,64,30.18,30.08,3,0,0,0.56
2013-5-29,86,69,57,73,64,57,100,86,57,30.09,29.94,9,1,0,0.01
2013-5-30,92,80,69,72,68,65,94,69,43,30.09,30.01,10,1,0,0.00
2013-5-31,94,80,68,76,68,61,94,69,41,30.08,29.93,9,0,0,0.00
2013-6-1,91,79,68,75,69,64,95,74,50,29.97,29.84,9,1,0,0.00
2013-6-2,88,78,70,75,71,68,95,79,58,29.86,29.72,12,1,12,0.02
2013-6-3,82,73,66,72,66,49,99,82,56,29.85,29.75,8,0,0,0.10
2013-6-4,77,65,55,50,47,44,74,54,33,30.07,29.84,10,1,0,0.00
2013-6-5,76,63,48,54,49,42,94,63,39,30.17,30.07,8,0,0,0.00
2013-6-6,72,61,52,61,57,51,99,87,55,30.10,29.96,12,0,12,0.26
2013-6-7,63,61,59,63,61,59,100,100,98,29.96,29.58,9,0,0,3.54
2013-6-8,77,67,56,67,63,56,100,88,68,30.01,29.56,9,1,0,0.08
2013-6-9,82,70,57,65,61,57,100,77,49,30.13,30.01,9,1,0,0.00
2013-6-10,68,65,64,67,64,62,100,96,92,30.11,29.76,13,0,13,0.99
2013-6-11,80,72,64,70,66,61,100,85,67,29.76,29.58,16,2,16,0.07
2013-6-12,79,70,62,63,59,55,86,68,48,29.80,29.67,13,1,13,0.00
2013-6-13,63,61,56,62,60,55,99,96,85,29.80,29.41,14,0,14,1.21
2013-6-14,76,60,53,64,56,52,99,87,60,29.86,29.50,8,0,0,0.24
2013-6-15,82,68,54,62,57,54,100,73,42,29.98,29.86,10,1,0,0.01
2013-6-16,82,69,56,69,62,55,97,78,49,29.95,29.74,12,1,12,0.00
2013-6-17,86,73,64,74,67,64,99,83,53,29.87,29.79,10,1,0,0.53
2013-6-18,85,69,62,73,66,62,99,90,59,29.85,29.75,10,0,0,0.34
2013-6-19,78,66,56,62,56,49,99,73,40,30.12,29.84,7,0,0,0.04
2013-6-20,82,68,54,64,58,53,100,74,44,30.22,30.12,8,0,0,0.00
2013-6-21,83,71,58,65,59,54,91,67,45,30.26,30.18,11,1,0,0.00
2013-6-22,85,72,57,70,62,55,93,73,52,30.21,30.07,12,1,12,0.00
2013-6-23,90,76,64,74,69,62,97,80,57,30.15,30.00,9,1,0,0.00
2013-6-24,92,79,70,75,71,65,99,79,50,30.02,29.90,11,1,0,0.05
2013-6-25,91,77,66,77,71,66,100,84,54,29.95,29.76,15,1,15,0.14
2013-6-26,86,77,70,75,70,67,99,80,59,29.81,29.73,9,1,0,0.00
2013-6-27,89,77,69,77,72,68,100,85,62,29.78,29.49,11,0,0,1.17
2013-6-28,87,77,71,74,71,68,100,85,58,29.51,29.42,10,1,0,0.01
2013-6-29,87,76,66,72,68,65,99,79,53,29.65,29.44,8,1,0,0.00
2013-6-30,86,75,67,78,72,66,98,91,74,29.86,29.65,4,0,0,0.25
2013-7-1,77,74,72,76,74,71,100,98,94,29.99,29.84,6,0,0,1.50
2013-7-2,86,77,72,80,74,72,100,93,77,30.13,29.99,8,0,0,0.04
2013-7-3,88,77,71,79,74,70,99,91,70,30.20,30.11,9,0,0,0.01
2013-7-4,90,80,74,79,75,72,100,85,64,30.21,30.10,10,1,0,0.01
2013-7-5,92,82,72,78,74,72,99,80,56,30.17,30.04,9,1,0,0.00
2013-7-6,93,83,75,78,75,73,95,78,55,30.09,29.98,10,1,0,0.00
2013-7-7,93,83,72,80,75,68,98,80,59,30.02,29.88,21,1,21,0.24
2013-7-8,88,78,68,75,71,68,100,82,58,30.00,29.92,9,1,0,0.00
2013-7-9,88,78,68,76,72,67,97,82,61,30.03,29.94,10,1,0,0.00
2013-7-10,87,79,71,79,74,70,98,87,67,29.97,29.76,13,1,13,0.07
2013-7-11,86,78,70,75,72,65,96,83,62,29.88,29.75,6,0,0,0.00
2013-7-12,77,72,68,72,68,64,98,88,75,30.05,29.88,7,0,0,0.12
2013-7-13,80,72,67,77,72,66,100,98,88,30.23,30.05,10,0,0,0.16
2013-7-14,91,81,74,78,75,72,100,83,58,30.30,30.19,8,1,0,0.01
2013-7-15,96,84,72,78,74,71,98,76,52,30.21,30.09,7,1,0,0.00
2013-7-16,94,82,70,75,72,68,97,73,46,30.16,30.08,7,0,0,0.00
2013-7-17,96,83,72,77,73,70,98,74,46,30.15,30.01,7,0,0,0.00
2013-7-18,97,86,75,78,75,71,92,71,44,30.02,29.90,11,1,0,0.00
2013-7-19,96,87,77,82,78,75,94,76,54,29.93,29.75,11,1,0,0.00
2013-7-20,92,83,76,78,74,69,87,75,52,29.80,29.68,11,1,0,0.00
2013-7-21,89,79,72,74,70,65,98,75,50,29.91,29.79,5,0,0,0.00
2013-7-22,87,76,70,77,73,67,99,88,71,29.91,29.74,9,0,0,0.32
2013-7-23,87,78,71,77,74,70,100,90,66,29.75,29.52,8,1,0,0.82
2013-7-24,82,74,65,70,66,56,99,78,55,29.89,29.57,9,1,0,0.00
2013-7-25,67,64,61,62,57,52,92,78,71,30.01,29.89,7,0,0,0.00
2013-7-26,84,72,63,68,63,61,92,74,51,30.00,29.95,8,0,0,0.00
2013-7-27,86,72,61,70,64,60,100,79,48,30.01,29.90,8,0,0,0.00
2013-7-28,80,71,65,74,68,63,100,92,76,29.94,29.85,6,0,0,1.70
2013-7-29,83,73,65,70,65,55,100,78,39,30.06,29.91,9,1,0,0.00
2013-7-30,81,69,58,65,60,56,96,74,50,30.13,30.06,10,0,0,0.00
2013-7-31,83,70,58,66,62,57,99,79,49,30.12,29.99,8,0,0,0.00
2013-8-1,71,68,66,69,66,64,100,97,90,29.99,29.79,5,0,0,0.69
2013-8-2,83,73,62,69,66,62,100,81,51,29.87,29.75,12,1,12,0.00
2013-8-3,78,70,65,70,65,61,97,86,73,29.87,29.80,9,1,0,0.10
2013-8-4,80,68,58,64,60,53,99,76,48,29.94,29.82,13,1,13,0.00
2013-8-5,79,66,54,58,54,48,95,68,39,30.02,29.94,8,1,0,0.00
2013-8-6,83,68,56,65,60,55,99,76,43,30.08,29.99,8,0,0,0.00
2013-8-7,80,70,64,71,67,63,98,89,71,30.09,30.01,5,0,0,0.20
2013-8-8,73,71,71,72,46,-100,100,99,98,29.98,29.96,1,0,1,1.09
2013-8-9,85,76,71,79,75,71,100,95,76,29.97,29.75,10,1,0,0.14
2013-8-10,83,74,66,73,67,64,100,81,56,29.97,29.82,8,1,0,0.00
2013-8-11,81,75,69,67,65,62,88,74,58,30.01,29.98,5,0,0,0.00
2013-8-12,84,73,67,70,67,64,98,83,53,29.99,29.88,5,0,0,0.08
2013-8-13,80,71,66,73,69,66,100,93,73,29.89,29.65,5,0,0,0.75
2013-8-14,75,65,55,66,55,50,99,72,53,30.01,29.72,14,1,14,0.00
2013-8-15,79,64,50,59,54,48,99,73,42,30.11,30.01,8,0,0,0.00
2013-8-16,73,59,53,60,56,53,100,90,54,30.13,30.09,4,0,0,0.00
2013-9-8,62,59,56,53,50,48,77,73,68,30.04,29.99,0,0,0,0.00
2013-9-9,73,61,48,61,54,46,96,78,56,30.20,30.04,5,0,0,0.00
2013-9-10,86,74,65,77,70,61,95,86,70,30.12,30.00,11,1,0,0.00
2013-9-11,94,81,72,81,76,71,99,84,63,30.07,29.93,9,1,0,0.00
2013-9-12,84,75,68,80,73,67,100,93,79,29.94,29.63,19,0,19,0.88
2013-9-13,68,67,66,68,67,66,100,99,99,29.66,29.60,2,0,0,0.04
2013-9-18,56,52,50,50,49,48,95,90,81,30.16,30.15,0,0,0,0.00
2013-9-19,76,59,44,59,52,44,100,80,45,30.16,30.03,8,0,0,0.00
2013-9-20,80,63,48,63,57,48,100,84,50,30.05,29.94,5,0,0,0.00
2013-9-21,78,64,52,69,60,52,100,88,60,29.97,29.66,9,0,0,0.00